createdAt,value
2023-06-16T00:01:32.381Z,46.53
2023-06-16T00:04:00.974Z,46.53
2023-06-16T00:06:30.776Z,46.54
2023-06-16T00:08:59.391Z,46.53
2023-06-16T00:11:28.750Z,46.46
2023-06-16T00:13:57.238Z,46.48
2023-06-16T00:16:24.903Z,46.47
2023-06-16T00:18:54.777Z,46.70
2023-06-16T00:21:39.221Z,46.77
2023-06-16T00:24:07.475Z,46.78
2023-06-16T00:26:36.280Z,46.85
2023-06-16T00:29:04.579Z,46.86
2023-06-16T00:31:33.244Z,47.03
2023-06-16T00:34:01.001Z,47.46
2023-06-16T00:36:28.565Z,47.70
2023-06-16T00:38:57.029Z,47.89
2023-06-16T00:41:25.866Z,48.02
2023-06-16T00:43:54.488Z,48.07
2023-06-16T00:46:30.657Z,48.47
2023-06-16T00:48:58.337Z,48.67
2023-06-16T00:51:27.986Z,48.83
2023-06-16T00:53:56.044Z,48.87
2023-06-16T00:56:25.067Z,48.71
2023-06-16T00:58:54.499Z,48.66
2023-06-16T01:01:22.320Z,48.85
2023-06-16T01:03:52.824Z,49.01
2023-06-16T01:06:38.830Z,49.04
2023-06-16T01:09:23.036Z,49.27
2023-06-16T01:12:04.815Z,49.36
2023-06-16T01:14:54.585Z,49.53
2023-06-16T01:17:24.132Z,49.82
2023-06-16T01:20:00.735Z,49.92
2023-06-16T01:22:44.413Z,49.91
2023-06-16T01:25:15.285Z,50.11
2023-06-16T01:27:48.683Z,50.13
2023-06-16T01:30:17.718Z,50.07
2023-06-16T01:32:47.673Z,50.34
2023-06-16T01:35:16.310Z,50.16
2023-06-16T01:37:44.995Z,50.29
2023-06-16T01:40:14.072Z,50.33
2023-06-16T01:42:41.659Z,50.27
2023-06-16T01:45:09.601Z,50.03
2023-06-16T01:47:37.535Z,50.10
2023-06-16T01:50:05.590Z,50.22
2023-06-16T01:52:33.188Z,50.52
2023-06-16T01:55:00.912Z,50.79
2023-06-16T01:57:28.647Z,51.04
2023-06-16T02:00:10.301Z,51.12
2023-06-16T02:02:48.481Z,50.89
2023-06-16T02:05:18.213Z,51.01
2023-06-16T02:07:46.197Z,51.01
2023-06-16T02:10:14.338Z,51.06
2023-06-16T02:12:42.187Z,51.17
2023-06-16T02:15:09.960Z,51.09
2023-06-16T02:17:37.516Z,51.02
2023-06-16T02:20:08.494Z,50.99
2023-06-16T02:22:36.356Z,50.85
2023-06-16T02:25:04.503Z,50.84
2023-06-16T02:27:32.390Z,51.04
2023-06-16T02:30:00.153Z,51.03
2023-06-16T02:32:28.121Z,51.28
2023-06-16T02:34:57.409Z,50.92
2023-06-16T02:37:26.637Z,51.30
2023-06-16T02:39:55.686Z,51.62
2023-06-16T02:42:23.867Z,51.80
2023-06-16T02:44:51.323Z,51.83
2023-06-16T02:47:18.910Z,51.78
2023-06-16T02:49:47.323Z,51.94
2023-06-16T02:52:14.794Z,52.18
2023-06-16T02:54:42.680Z,52.20
2023-06-16T02:57:10.881Z,52.03
2023-06-16T02:59:42.905Z,52.63
2023-06-16T03:02:10.972Z,52.91
2023-06-16T03:04:38.585Z,52.78
2023-06-16T03:07:06.440Z,52.75
2023-06-16T03:09:34.463Z,52.92
2023-06-16T03:12:02.094Z,52.45
2023-06-16T03:14:30.788Z,52.61
2023-06-16T03:17:01.532Z,52.36
2023-06-16T03:19:29.385Z,52.30
2023-06-16T03:21:56.996Z,52.06
2023-06-16T03:24:26.292Z,52.17
2023-06-16T03:26:55.459Z,52.36
2023-06-16T03:29:24.682Z,52.13
2023-06-16T03:31:52.915Z,52.36
2023-06-16T03:34:25.132Z,52.57
2023-06-16T03:36:53.600Z,52.72
2023-06-16T03:39:21.725Z,52.83
2023-06-16T03:41:49.302Z,52.89
2023-06-16T03:44:17.148Z,52.84
2023-06-16T03:46:44.914Z,53.09
2023-06-16T03:49:13.364Z,53.04
2023-06-16T03:51:42.118Z,53.12
2023-06-16T03:54:10.541Z,53.12
2023-06-16T03:56:38.170Z,52.85
2023-06-16T03:59:07.066Z,52.93
2023-06-16T04:01:37.458Z,52.98
2023-06-16T04:04:09.452Z,52.93
2023-06-16T04:06:37.740Z,53.07
2023-06-16T04:09:06.464Z,53.20
2023-06-16T04:11:34.425Z,53.05
2023-06-16T04:14:02.115Z,53.11
2023-06-16T04:16:30.142Z,52.83
2023-06-16T04:18:57.904Z,52.95
2023-06-16T04:21:25.771Z,53.00
2023-06-16T04:23:53.578Z,53.09
2023-06-16T04:26:23.499Z,52.56
2023-06-16T04:28:54.638Z,52.52
2023-06-16T04:31:29.430Z,52.47
2023-06-16T04:33:59.280Z,52.43
2023-06-16T04:36:30.903Z,52.21
2023-06-16T04:39:00.841Z,52.28
2023-06-16T04:41:28.777Z,52.51
2023-06-16T04:43:56.951Z,52.69
2023-06-16T04:46:25.080Z,52.30
2023-06-16T04:48:52.971Z,52.16
2023-06-16T04:51:21.558Z,51.85
2023-06-16T04:53:49.442Z,51.87
2023-06-16T04:56:17.257Z,52.21
2023-06-16T04:58:45.597Z,51.87
2023-06-16T05:01:13.189Z,51.68
2023-06-16T05:03:41.060Z,51.80
2023-06-16T05:06:08.642Z,51.45
2023-06-16T05:08:36.070Z,51.81
2023-06-16T05:11:03.820Z,51.27
2023-06-16T05:13:31.604Z,51.21
2023-06-16T05:15:59.220Z,51.44
2023-06-16T05:18:27.091Z,50.97
2023-06-16T05:20:54.573Z,50.86
2023-06-16T05:23:22.170Z,50.38
2023-06-16T05:25:50.025Z,50.62
2023-06-16T05:28:18.681Z,50.62
2023-06-16T05:30:46.444Z,50.21
2023-06-16T05:33:14.635Z,49.22
2023-06-16T05:35:42.557Z,49.52
2023-06-16T05:38:11.551Z,49.26
2023-06-16T05:40:39.434Z,48.92
2023-06-16T05:43:06.940Z,49.42
2023-06-16T05:45:34.735Z,49.29
2023-06-16T05:48:02.567Z,50.21
2023-06-16T05:50:30.457Z,50.54
2023-06-16T05:52:57.947Z,50.50
2023-06-16T05:55:25.790Z,50.08
2023-06-16T05:57:54.067Z,49.56
2023-06-16T06:00:22.205Z,49.10
2023-06-16T06:02:50.899Z,48.71
2023-06-16T06:05:19.606Z,48.31
2023-06-16T06:07:47.070Z,48.43
2023-06-16T06:10:15.529Z,48.50
2023-06-16T06:12:43.082Z,48.64
2023-06-16T06:15:11.583Z,48.81
2023-06-16T06:17:40.789Z,48.86
2023-06-16T06:20:09.182Z,48.93
2023-06-16T06:22:36.670Z,49.06
2023-06-16T06:25:06.858Z,48.63
2023-06-16T06:27:34.349Z,48.95
2023-06-16T06:30:02.135Z,48.83
2023-06-16T06:32:31.140Z,48.44
2023-06-16T06:34:58.809Z,48.66
2023-06-16T06:37:31.714Z,48.32
2023-06-16T06:39:59.806Z,48.39
2023-06-16T06:42:28.239Z,48.59
2023-06-16T06:44:56.179Z,48.42
2023-06-16T06:47:23.938Z,48.85
2023-06-16T06:49:51.869Z,48.60
2023-06-16T06:52:19.353Z,48.58
2023-06-16T06:54:47.147Z,49.19
2023-06-16T06:57:15.187Z,48.98
2023-06-16T06:59:43.224Z,49.22
2023-06-16T07:02:11.853Z,49.13
2023-06-16T07:04:40.865Z,48.57
2023-06-16T07:07:09.251Z,48.82
2023-06-16T07:09:36.968Z,48.79
2023-06-16T07:12:04.684Z,48.63
2023-06-16T07:14:32.236Z,48.87
2023-06-16T07:17:01.202Z,48.22
2023-06-16T07:19:28.668Z,48.38
2023-06-16T07:21:57.899Z,48.11
2023-06-16T07:24:25.795Z,48.57
2023-06-16T07:26:53.325Z,48.43
2023-06-16T07:29:21.624Z,48.49
2023-06-16T07:31:49.429Z,47.94
2023-06-16T07:34:16.959Z,48.65
2023-06-16T07:36:44.716Z,48.71
2023-06-16T07:39:12.863Z,48.20
2023-06-16T07:41:40.376Z,48.44
2023-06-16T07:44:07.846Z,47.83
2023-06-16T07:46:35.831Z,47.39
2023-06-16T07:49:03.399Z,47.75
2023-06-16T07:51:31.029Z,47.69
2023-06-16T07:53:58.771Z,47.59
2023-06-16T07:56:26.228Z,47.30
2023-06-16T07:58:53.698Z,46.87
2023-06-16T08:01:21.755Z,46.57
2023-06-16T08:03:50.255Z,46.12
2023-06-16T08:06:18.253Z,45.94
2023-06-16T08:08:45.880Z,45.83
2023-06-16T08:11:13.676Z,44.27
2023-06-16T08:13:41.254Z,44.24
2023-06-16T08:16:08.834Z,43.23
2023-06-16T08:18:36.643Z,43.70
2023-06-16T08:21:08.059Z,43.77
2023-06-16T08:23:36.699Z,43.03
2023-06-16T08:26:06.130Z,42.65
2023-06-16T08:28:33.580Z,42.01
2023-06-16T08:31:01.579Z,41.62
2023-06-16T08:33:29.185Z,41.93
2023-06-16T08:35:57.018Z,41.82
2023-06-16T08:38:25.136Z,41.00
2023-06-16T08:40:52.670Z,40.01
2023-06-16T08:43:23.188Z,39.87
2023-06-16T08:45:51.664Z,38.98
2023-06-16T08:48:19.185Z,41.28
2023-06-16T08:50:47.294Z,39.94
2023-06-16T08:53:16.566Z,39.17
2023-06-16T08:55:44.586Z,39.50
2023-06-16T08:58:13.469Z,40.17
2023-06-16T09:00:41.899Z,40.09
2023-06-16T09:03:09.588Z,39.71
2023-06-16T09:05:37.781Z,40.48
2023-06-16T09:08:06.658Z,41.20
2023-06-16T09:10:35.460Z,39.95
2023-06-16T09:13:03.846Z,40.93
2023-06-16T09:15:35.054Z,40.02
2023-06-16T09:18:08.171Z,39.45
2023-06-16T09:20:38.972Z,40.30
2023-06-16T09:23:06.402Z,39.53
2023-06-16T09:25:34.589Z,40.35
2023-06-16T09:28:10.687Z,40.41
2023-06-16T09:30:40.639Z,39.79
2023-06-16T09:33:10.634Z,40.52
2023-06-16T09:35:41.397Z,40.59
2023-06-16T09:38:11.030Z,39.67
2023-06-16T09:40:39.896Z,39.85
2023-06-16T09:43:09.831Z,40.14
2023-06-16T09:45:37.464Z,40.72
2023-06-16T09:48:06.745Z,38.77
2023-06-16T09:50:34.812Z,39.30
2023-06-16T09:53:05.457Z,37.90
2023-06-16T09:55:37.492Z,38.90
2023-06-16T09:58:04.963Z,38.90
2023-06-16T10:00:34.158Z,39.48
2023-06-16T10:03:03.764Z,39.21
2023-06-16T10:05:35.951Z,38.70
2023-06-16T10:08:08.529Z,39.13
2023-06-16T10:10:39.460Z,38.97
2023-06-16T10:13:07.909Z,38.31
2023-06-16T10:15:40.871Z,38.38
2023-06-16T10:18:12.205Z,38.84
2023-06-16T10:20:40.283Z,39.37
2023-06-16T10:23:08.989Z,38.72
2023-06-16T10:25:37.607Z,38.46
2023-06-16T10:28:09.231Z,38.02
2023-06-16T10:30:37.444Z,38.73
2023-06-16T10:33:21.460Z,38.90
2023-06-16T10:36:11.567Z,40.01
2023-06-16T10:38:43.868Z,38.47
2023-06-16T10:41:16.560Z,38.00
2023-06-16T10:43:44.293Z,38.74
2023-06-16T10:46:18.991Z,38.40
2023-06-16T10:49:05.535Z,38.59
2023-06-16T10:51:49.018Z,38.02
2023-06-16T10:54:34.504Z,39.60
2023-06-16T10:57:13.964Z,38.66
2023-06-16T10:59:57.959Z,39.17
2023-06-16T11:02:28.102Z,38.40
2023-06-16T11:05:10.984Z,38.34
2023-06-16T11:07:47.387Z,38.71
2023-06-16T11:10:19.951Z,38.78
2023-06-16T11:12:48.443Z,37.27
2023-06-16T11:15:15.917Z,36.51
2023-06-16T11:17:45.148Z,36.64
2023-06-16T11:20:14.315Z,35.91
2023-06-16T11:22:44.054Z,34.46
2023-06-16T11:25:11.733Z,34.40
2023-06-16T11:27:39.802Z,34.23
2023-06-16T11:30:08.872Z,35.99
2023-06-16T11:32:38.493Z,34.96
2023-06-16T11:35:07.090Z,34.71
2023-06-16T11:37:40.366Z,34.57
2023-06-16T11:40:08.861Z,34.11
2023-06-16T11:42:36.573Z,33.90
2023-06-16T11:45:04.609Z,34.15
2023-06-16T11:47:32.565Z,33.91
2023-06-16T11:50:00.047Z,34.63
2023-06-16T11:52:28.429Z,34.97
2023-06-16T11:54:58.437Z,33.34
2023-06-16T11:57:25.955Z,33.67
2023-06-16T11:59:53.526Z,34.63
2023-06-16T12:02:21.682Z,33.04
2023-06-16T12:04:49.456Z,33.28
2023-06-16T12:07:16.955Z,34.88
2023-06-16T12:09:44.391Z,34.98
2023-06-16T12:12:15.153Z,34.06
2023-06-16T12:14:42.796Z,34.58
2023-06-16T12:17:10.801Z,33.35
2023-06-16T12:19:41.395Z,34.19
2023-06-16T12:22:10.081Z,34.48
2023-06-16T12:24:40.106Z,33.68
2023-06-16T12:27:07.715Z,32.67
2023-06-16T12:29:35.348Z,33.09
2023-06-16T12:32:06.541Z,33.76
2023-06-16T12:34:36.796Z,33.27
2023-06-16T12:37:07.986Z,33.72
2023-06-16T12:39:35.765Z,33.54
2023-06-16T12:42:03.183Z,33.03
2023-06-16T12:44:50.030Z,33.68
2023-06-16T12:47:22.845Z,32.26
2023-06-16T12:49:55.631Z,32.40
2023-06-16T12:52:24.268Z,32.62
2023-06-16T12:54:53.188Z,32.19
2023-06-16T12:57:24.611Z,33.74
2023-06-16T12:59:52.298Z,33.99
2023-06-16T13:02:20.176Z,35.33
2023-06-16T13:04:48.231Z,35.24
2023-06-16T13:07:16.279Z,36.03
2023-06-16T13:09:43.806Z,35.40
2023-06-16T13:12:11.308Z,35.09
2023-06-16T13:14:39.068Z,34.03
2023-06-16T13:17:07.231Z,34.76
2023-06-16T13:19:34.669Z,33.78
2023-06-16T13:22:02.774Z,33.88
2023-06-16T13:24:31.043Z,33.72
2023-06-16T13:26:58.578Z,33.84
2023-06-16T13:29:27.973Z,32.49
2023-06-16T13:31:55.962Z,30.94
2023-06-16T13:34:23.376Z,32.16
2023-06-16T13:36:51.119Z,32.05
2023-06-16T13:39:18.576Z,31.66
2023-06-16T13:41:46.643Z,32.23
2023-06-16T13:44:14.571Z,31.50
2023-06-16T13:46:42.266Z,31.50
2023-06-16T13:49:12.837Z,32.05
2023-06-16T13:51:44.085Z,30.41
2023-06-16T13:54:12.134Z,29.55
2023-06-16T13:56:42.225Z,29.93
2023-06-16T13:59:10.077Z,30.15
2023-06-16T14:01:37.566Z,30.91
2023-06-16T14:04:05.255Z,31.32
2023-06-16T14:06:32.778Z,31.01
2023-06-16T14:09:00.400Z,31.00
2023-06-16T14:11:28.117Z,31.40
2023-06-16T14:13:55.589Z,31.43
2023-06-16T14:16:23.056Z,30.50
2023-06-16T14:18:53.236Z,30.76
2023-06-16T14:21:20.813Z,30.44
2023-06-16T14:23:49.564Z,29.89
2023-06-16T14:26:17.339Z,30.00
2023-06-16T14:28:44.869Z,30.46
2023-06-16T14:31:12.419Z,30.08
2023-06-16T14:33:40.179Z,30.20
2023-06-16T14:36:07.750Z,29.08
2023-06-16T14:38:35.222Z,30.33
2023-06-16T14:41:02.969Z,29.45
2023-06-16T14:43:30.393Z,29.38
2023-06-16T14:45:58.144Z,29.34
2023-06-16T14:48:25.940Z,28.51
2023-06-16T14:50:53.412Z,29.45
2023-06-16T14:53:21.193Z,28.70
2023-06-16T14:55:48.959Z,29.30
2023-06-16T14:58:16.543Z,28.50
2023-06-16T15:00:44.093Z,28.48
2023-06-16T15:03:11.929Z,28.80
2023-06-16T15:05:39.717Z,28.78
2023-06-16T15:08:07.208Z,27.77
2023-06-16T15:10:34.990Z,28.17
2023-06-16T15:13:02.621Z,28.64
2023-06-16T15:15:30.086Z,28.84
2023-06-16T15:17:57.969Z,28.68
2023-06-16T15:20:25.726Z,28.05
2023-06-16T15:22:53.127Z,28.47
2023-06-16T15:25:23.123Z,28.45
2023-06-16T15:27:59.749Z,28.67
2023-06-16T15:30:35.060Z,28.15
2023-06-16T15:33:02.615Z,27.61
2023-06-16T15:35:30.456Z,28.38
2023-06-16T15:37:58.240Z,28.31
2023-06-16T15:40:25.862Z,28.01
2023-06-16T15:43:01.815Z,28.14
2023-06-16T15:45:29.534Z,27.79
2023-06-16T15:47:57.550Z,27.44
2023-06-16T15:50:26.431Z,28.04
2023-06-16T15:52:54.190Z,26.30
2023-06-16T15:55:21.863Z,27.34
2023-06-16T15:57:49.624Z,29.03
2023-06-16T16:00:17.745Z,27.37
2023-06-16T16:02:46.098Z,28.74
2023-06-16T16:05:15.928Z,27.12
2023-06-16T16:07:43.650Z,27.85
2023-06-16T16:10:11.416Z,27.70
2023-06-16T16:12:40.059Z,27.74
2023-06-16T16:15:09.570Z,27.01
2023-06-16T16:17:38.343Z,26.44
2023-06-16T16:20:07.464Z,27.72
2023-06-16T16:22:34.925Z,29.17
2023-06-16T16:25:02.826Z,27.28
2023-06-16T16:27:30.696Z,27.57
2023-06-16T16:29:58.271Z,27.44
2023-06-16T16:32:27.584Z,27.30
2023-06-16T16:34:55.402Z,27.71
2023-06-16T16:37:23.187Z,26.80
2023-06-16T16:39:51.289Z,27.10
2023-06-16T16:42:18.884Z,26.30
2023-06-16T16:44:47.173Z,28.55
2023-06-16T16:47:16.042Z,31.70
2023-06-16T16:49:43.772Z,32.99
2023-06-16T16:52:12.036Z,33.65
2023-06-16T16:54:39.766Z,34.01
2023-06-16T16:57:07.403Z,34.89
2023-06-16T16:59:35.044Z,34.81
2023-06-16T17:02:03.012Z,35.75
2023-06-16T17:04:31.216Z,35.67
2023-06-16T17:06:58.759Z,36.26
2023-06-16T17:09:26.494Z,36.99
2023-06-16T17:11:56.310Z,37.39
2023-06-16T17:14:25.445Z,38.15
2023-06-16T17:16:53.316Z,38.31
2023-06-16T17:19:21.060Z,39.28
2023-06-16T17:21:48.776Z,39.42
2023-06-16T17:24:17.045Z,39.51
2023-06-16T17:26:46.269Z,39.34
2023-06-16T17:29:16.034Z,39.46
2023-06-16T17:31:45.576Z,39.80
2023-06-16T17:34:13.134Z,40.15
2023-06-16T17:36:40.894Z,40.31
2023-06-16T17:39:08.356Z,40.08
2023-06-16T17:41:35.875Z,39.15
2023-06-16T17:44:06.646Z,39.62
2023-06-16T17:46:36.328Z,39.86
2023-06-16T17:49:05.480Z,38.89
2023-06-16T17:51:32.924Z,38.88
2023-06-16T17:54:00.426Z,38.73
2023-06-16T17:56:33.100Z,39.01
2023-06-16T17:59:01.841Z,39.10
2023-06-16T18:01:29.916Z,38.94
2023-06-16T18:03:57.684Z,38.87
2023-06-16T18:06:25.198Z,39.15
2023-06-16T18:08:52.628Z,39.32
2023-06-16T18:11:20.526Z,39.79
2023-06-16T18:13:47.976Z,40.66
2023-06-16T18:16:15.561Z,41.16
2023-06-16T18:18:43.331Z,41.61
2023-06-16T18:21:10.803Z,41.69
2023-06-16T18:23:38.316Z,41.85
2023-06-16T18:26:06.034Z,42.10
2023-06-16T18:28:34.278Z,42.45
2023-06-16T18:31:02.006Z,42.80
2023-06-16T18:33:31.276Z,42.92
2023-06-16T18:35:58.721Z,43.12
2023-06-16T18:38:26.207Z,43.74
2023-06-16T18:40:53.922Z,43.58
2023-06-16T18:43:25.494Z,43.62
2023-06-16T18:45:54.957Z,43.66
2023-06-16T18:48:22.686Z,44.06
2023-06-16T18:50:50.202Z,44.16
2023-06-16T18:53:18.020Z,44.26
2023-06-16T18:55:49.385Z,44.64
2023-06-16T18:58:17.794Z,44.76
2023-06-16T19:00:45.749Z,44.96
2023-06-16T19:03:13.309Z,45.14
2023-06-16T19:05:42.625Z,45.22
2023-06-16T19:08:12.289Z,45.38
2023-06-16T19:10:39.971Z,45.40
2023-06-16T19:13:09.534Z,45.42
2023-06-16T19:15:38.302Z,45.50
2023-06-16T19:18:05.871Z,45.82
2023-06-16T19:20:33.354Z,46.16
2023-06-16T19:23:01.252Z,46.40
2023-06-16T19:25:29.392Z,46.62
2023-06-16T19:27:56.792Z,46.90
2023-06-16T19:30:24.600Z,46.86
2023-06-16T19:32:52.207Z,46.98
2023-06-16T19:35:20.579Z,47.11
2023-06-16T19:37:48.487Z,47.22
2023-06-16T19:40:15.942Z,47.46
2023-06-16T19:42:43.382Z,47.41
2023-06-16T19:45:11.207Z,47.55
2023-06-16T19:47:38.946Z,47.66
2023-06-16T19:50:07.147Z,47.53
2023-06-16T19:52:34.945Z,47.54
2023-06-16T19:55:02.523Z,47.50
2023-06-16T19:57:30.305Z,47.78
2023-06-16T19:59:58.076Z,47.75
2023-06-16T20:02:27.152Z,46.73
2023-06-16T20:04:55.668Z,46.53
2023-06-16T20:07:23.949Z,47.18
2023-06-16T20:09:51.788Z,47.62
2023-06-16T20:12:19.653Z,47.64
2023-06-16T20:14:47.504Z,47.23
2023-06-16T20:17:15.320Z,47.40
2023-06-16T20:22:13.096Z,47.60
2023-06-16T20:24:40.636Z,47.77
2023-06-16T20:27:08.676Z,47.80
2023-06-16T20:29:36.130Z,47.81
2023-06-16T20:32:03.740Z,47.97
2023-06-16T20:34:31.438Z,48.21
2023-06-16T20:37:00.011Z,48.45
2023-06-16T20:39:27.487Z,48.63
2023-06-16T20:41:56.559Z,48.89
2023-06-16T20:44:24.027Z,49.06
2023-06-16T20:46:51.546Z,49.55
2023-06-16T20:49:20.174Z,49.54
2023-06-16T20:51:47.601Z,49.51
2023-06-16T20:54:15.029Z,49.84
2023-06-16T20:56:42.755Z,50.16
2023-06-16T20:59:10.345Z,49.98
2023-06-16T21:01:44.096Z,50.44
2023-06-16T21:04:12.880Z,50.63
2023-06-16T21:06:41.612Z,50.58
2023-06-16T21:09:11.641Z,50.56
2023-06-16T21:11:40.116Z,51.18
2023-06-16T21:14:08.058Z,51.28
2023-06-16T21:16:35.566Z,51.26
2023-06-16T21:19:03.923Z,51.25
2023-06-16T21:21:31.361Z,51.50
2023-06-16T21:24:01.366Z,51.64
2023-06-16T21:26:29.258Z,51.92
2023-06-16T21:28:56.707Z,52.10
2023-06-16T21:31:24.959Z,52.16
2023-06-16T21:33:52.657Z,52.32
2023-06-16T21:36:20.108Z,52.46
2023-06-16T21:38:54.630Z,52.52
2023-06-16T21:41:25.024Z,52.45
2023-06-16T21:43:52.615Z,52.63
2023-06-16T21:46:20.204Z,52.96
2023-06-16T21:48:50.077Z,52.82
2023-06-16T21:51:18.089Z,52.74
2023-06-16T21:53:45.540Z,52.79
2023-06-16T21:56:13.495Z,52.77
2023-06-16T21:58:41.063Z,52.93
2023-06-16T22:01:08.615Z,53.01
2023-06-16T22:03:36.348Z,52.85
2023-06-16T22:06:04.630Z,53.04
2023-06-16T22:08:32.155Z,52.71
2023-06-16T22:11:01.554Z,53.19
2023-06-16T22:13:30.020Z,53.14
2023-06-16T22:15:59.069Z,53.18
2023-06-16T22:18:26.842Z,53.04
2023-06-16T22:20:54.533Z,53.07
2023-06-16T22:23:22.017Z,53.18
2023-06-16T22:25:50.563Z,53.31
2023-06-16T22:28:18.099Z,53.51
2023-06-16T22:30:47.292Z,53.81
2023-06-16T22:33:15.145Z,53.89
2023-06-16T22:35:42.597Z,53.91
2023-06-16T22:38:10.144Z,53.77
2023-06-16T22:40:37.969Z,53.84
2023-06-16T22:43:05.465Z,53.96
2023-06-16T22:45:32.989Z,54.08
2023-06-16T22:48:02.272Z,54.32
2023-06-16T22:50:29.792Z,54.33
2023-06-16T22:52:58.332Z,54.27
2023-06-16T22:55:26.939Z,54.61
2023-06-16T22:57:54.368Z,54.45
2023-06-16T23:00:22.086Z,54.42
2023-06-16T23:02:50.301Z,54.65
2023-06-16T23:05:17.867Z,54.73
2023-06-16T23:07:46.314Z,55.01
2023-06-16T23:10:14.111Z,55.02
2023-06-16T23:12:41.676Z,54.98
2023-06-16T23:15:09.326Z,55.27
2023-06-16T23:17:37.130Z,55.36
2023-06-16T23:20:05.043Z,55.17
2023-06-16T23:22:34.058Z,55.38
2023-06-16T23:25:02.649Z,55.39
2023-06-16T23:27:30.160Z,55.73
2023-06-16T23:29:57.704Z,55.81
2023-06-16T23:32:25.740Z,55.72
2023-06-16T23:34:54.386Z,55.80
2023-06-16T23:37:22.521Z,55.60
2023-06-16T23:39:50.313Z,55.49
2023-06-16T23:42:18.019Z,55.12
2023-06-16T23:44:47.326Z,55.28
2023-06-16T23:47:15.177Z,55.16
2023-06-16T23:49:42.650Z,55.25
2023-06-16T23:52:10.089Z,54.94
2023-06-16T23:54:37.831Z,55.06
2023-06-16T23:57:05.742Z,55.04
2023-06-16T23:59:33.203Z,55.16
